createdAt,value
2018-08-31T00:02:18.058Z,13.32
2018-08-31T00:05:02.763Z,13.18
2018-08-31T00:07:48.025Z,13.11
2018-08-31T00:10:48.274Z,13.05
2018-08-31T00:13:21.628Z,13.00
2018-08-31T00:15:55.018Z,12.90
2018-08-31T00:18:28.357Z,12.86
2018-08-31T00:21:01.697Z,12.84
2018-08-31T00:23:46.465Z,12.80
2018-08-31T00:26:31.033Z,12.76
2018-08-31T00:29:51.023Z,12.72
2018-08-31T00:34:44.458Z,12.68
2018-08-31T00:39:35.038Z,12.51
2018-08-31T00:42:19.606Z,12.36
2018-08-31T00:45:04.959Z,12.33
2018-08-31T00:47:38.506Z,12.21
2018-08-31T00:50:11.874Z,12.33
2018-08-31T00:52:45.218Z,12.28
2018-08-31T00:55:18.603Z,12.34
2018-08-31T00:57:52.485Z,12.30
2018-08-31T01:00:25.786Z,12.27
2018-08-31T01:02:59.120Z,12.17
2018-08-31T01:05:32.477Z,12.23
2018-08-31T01:08:05.883Z,12.24
2018-08-31T01:10:39.309Z,12.23
2018-08-31T01:13:12.646Z,12.26
2018-08-31T01:15:46.010Z,12.20
2018-08-31T01:18:19.353Z,12.21
2018-08-31T01:20:52.695Z,12.20
2018-08-31T01:23:26.041Z,12.29
2018-08-31T01:25:59.364Z,12.29
2018-08-31T01:28:32.675Z,12.21
2018-08-31T01:31:06.012Z,12.35
2018-08-31T01:33:39.331Z,12.37
2018-08-31T01:36:12.758Z,12.40
2018-08-31T01:38:46.303Z,12.42
2018-08-31T01:41:19.631Z,12.41
2018-08-31T01:43:53.009Z,12.41
2018-08-31T01:46:26.397Z,12.40
2018-08-31T01:48:59.817Z,12.36
2018-08-31T01:51:33.149Z,12.38
2018-08-31T01:54:06.577Z,12.32
2018-08-31T01:56:39.953Z,12.29
2018-08-31T01:59:13.265Z,12.23
2018-08-31T02:01:46.672Z,12.18
2018-08-31T02:04:20.056Z,12.18
2018-08-31T02:06:53.397Z,12.15
2018-08-31T02:09:26.718Z,12.21
2018-08-31T02:12:00.108Z,12.21
2018-08-31T02:14:33.405Z,12.14
2018-08-31T02:17:06.837Z,12.00
2018-08-31T02:19:40.148Z,11.95
2018-08-31T02:22:13.586Z,11.90
2018-08-31T02:24:46.884Z,11.92
2018-08-31T02:27:20.203Z,11.91
2018-08-31T02:29:53.525Z,11.86
2018-08-31T02:32:26.893Z,11.85
2018-08-31T02:35:00.714Z,11.81
2018-08-31T02:37:34.064Z,11.80
2018-08-31T02:40:07.409Z,11.76
2018-08-31T02:42:40.757Z,11.75
2018-08-31T02:45:14.066Z,11.75
2018-08-31T02:47:47.884Z,11.74
2018-08-31T02:50:21.189Z,11.70
2018-08-31T02:52:54.536Z,11.66
2018-08-31T02:55:27.854Z,11.66
2018-08-31T02:58:01.827Z,11.64
2018-08-31T03:00:35.589Z,11.72
2018-08-31T03:03:08.989Z,11.72
2018-08-31T03:05:42.309Z,11.62
2018-08-31T03:08:15.632Z,11.70
2018-08-31T03:10:48.957Z,11.71
2018-08-31T03:13:22.330Z,11.75
2018-08-31T03:15:55.674Z,11.74
2018-08-31T03:18:29.910Z,11.73
2018-08-31T03:21:03.226Z,11.73
2018-08-31T03:23:37.374Z,11.71
2018-08-31T03:26:10.682Z,11.74
2018-08-31T03:28:44.030Z,11.72
2018-08-31T03:31:17.391Z,11.72
2018-08-31T03:33:50.743Z,11.75
2018-08-31T03:36:24.070Z,11.72
2018-08-31T03:38:57.418Z,11.69
2018-08-31T03:41:31.442Z,11.64
2018-08-31T03:44:05.112Z,11.62
2018-08-31T03:46:38.427Z,11.60
2018-08-31T03:49:11.783Z,11.57
2018-08-31T03:51:45.114Z,11.49
2018-08-31T03:54:18.472Z,11.46
2018-08-31T03:56:51.871Z,11.39
2018-08-31T03:59:25.234Z,11.41
2018-08-31T04:01:58.583Z,11.38
2018-08-31T04:04:31.909Z,11.33
2018-08-31T04:07:05.254Z,11.28
2018-08-31T04:09:38.646Z,11.31
2018-08-31T04:12:11.974Z,11.25
2018-08-31T04:14:45.349Z,11.14
2018-08-31T04:17:18.714Z,11.15
2018-08-31T04:19:52.126Z,11.08
2018-08-31T04:22:25.467Z,11.09
2018-08-31T04:24:58.849Z,11.07
2018-08-31T04:27:32.237Z,11.11
2018-08-31T04:30:06.637Z,11.15
2018-08-31T04:32:39.967Z,11.13
2018-08-31T04:35:13.305Z,11.12
2018-08-31T04:37:46.643Z,11.13
2018-08-31T04:40:19.996Z,11.12
2018-08-31T04:42:53.416Z,11.17
2018-08-31T04:45:27.006Z,11.15
2018-08-31T04:48:00.403Z,11.17
2018-08-31T04:50:33.801Z,11.19
2018-08-31T04:53:07.177Z,11.23
2018-08-31T04:55:40.509Z,11.23
2018-08-31T04:58:13.829Z,11.13
2018-08-31T05:00:47.170Z,11.22
2018-08-31T05:03:20.494Z,11.32
2018-08-31T05:05:53.865Z,11.43
2018-08-31T05:08:27.182Z,11.45
2018-08-31T05:11:00.550Z,11.42
2018-08-31T05:13:33.908Z,11.46
2018-08-31T05:16:07.312Z,11.35
2018-08-31T05:18:40.654Z,11.52
2018-08-31T05:21:14.009Z,11.53
2018-08-31T05:23:47.365Z,11.47
2018-08-31T05:26:20.731Z,11.46
2018-08-31T05:28:54.313Z,11.52
2018-08-31T05:31:27.665Z,11.55
2018-08-31T05:34:01.087Z,11.72
2018-08-31T05:36:34.414Z,11.84
2018-08-31T05:39:09.461Z,11.87
2018-08-31T05:41:43.183Z,12.02
2018-08-31T05:44:16.593Z,12.16
2018-08-31T05:46:49.937Z,12.32
2018-08-31T05:49:23.240Z,12.41
2018-08-31T05:51:56.648Z,12.57
2018-08-31T05:54:29.993Z,12.77
2018-08-31T05:57:03.402Z,12.86
2018-08-31T05:59:36.718Z,13.03
2018-08-31T06:02:10.097Z,13.10
2018-08-31T06:04:43.446Z,13.10
2018-08-31T06:07:16.813Z,13.30
2018-08-31T06:09:50.132Z,13.51
2018-08-31T06:12:23.509Z,13.64
2018-08-31T06:14:56.834Z,13.74
2018-08-31T06:17:30.234Z,13.84
2018-08-31T06:20:03.614Z,13.97
2018-08-31T06:22:36.961Z,14.25
2018-08-31T06:25:10.281Z,14.45
2018-08-31T06:27:43.641Z,14.61
2018-08-31T06:30:16.967Z,14.74
2018-08-31T06:32:50.302Z,14.91
2018-08-31T06:35:23.648Z,14.98
2018-08-31T06:37:56.990Z,15.14
2018-08-31T06:40:30.356Z,15.33
2018-08-31T06:43:03.737Z,15.49
2018-08-31T06:45:37.039Z,15.58
2018-08-31T06:48:10.375Z,15.56
2018-08-31T06:50:43.697Z,15.67
2018-08-31T06:53:17.033Z,15.85
2018-08-31T06:55:50.364Z,15.96
2018-08-31T06:58:23.712Z,16.19
2018-08-31T07:00:57.041Z,16.32
2018-08-31T07:03:31.258Z,16.44
2018-08-31T07:06:04.626Z,16.55
2018-08-31T07:08:37.958Z,16.60
2018-08-31T07:11:11.286Z,16.54
2018-08-31T07:13:44.669Z,16.70
2018-08-31T07:16:17.993Z,16.76
2018-08-31T07:18:51.349Z,16.89
2018-08-31T07:21:24.669Z,17.02
2018-08-31T07:23:58.031Z,17.11
2018-08-31T07:26:31.423Z,17.22
2018-08-31T07:29:04.773Z,17.35
2018-08-31T07:31:38.148Z,17.40
2018-08-31T07:34:11.466Z,17.47
2018-08-31T07:36:44.822Z,17.51
2018-08-31T07:39:18.236Z,17.53
2018-08-31T07:41:51.577Z,17.50
2018-08-31T07:44:24.926Z,17.46
2018-08-31T07:46:58.257Z,17.41
2018-08-31T07:49:31.577Z,17.59
2018-08-31T07:52:04.953Z,17.76
2018-08-31T07:54:38.351Z,17.86
2018-08-31T07:57:11.693Z,17.92
2018-08-31T07:59:45.017Z,18.12
2018-08-31T08:02:18.359Z,18.23
2018-08-31T08:04:51.764Z,18.31
2018-08-31T08:07:25.154Z,18.30
2018-08-31T08:09:58.591Z,18.52
2018-08-31T08:12:31.937Z,18.75
2018-08-31T08:15:05.598Z,18.93
2018-08-31T08:17:45.662Z,19.04
2018-08-31T08:20:19.265Z,19.06
2018-08-31T08:22:52.645Z,19.11
2018-08-31T08:25:25.961Z,19.08
2018-08-31T08:28:00.690Z,19.04
2018-08-31T08:30:34.009Z,19.25
2018-08-31T08:33:07.594Z,19.30
2018-08-31T08:35:40.915Z,19.46
2018-08-31T08:38:14.823Z,20.09
2018-08-31T08:40:48.165Z,20.46
2018-08-31T08:43:21.572Z,20.37
2018-08-31T08:45:55.070Z,20.22
2018-08-31T08:48:28.538Z,20.17
2018-08-31T08:51:01.786Z,20.19
2018-08-31T08:53:35.134Z,20.12
2018-08-31T08:56:08.653Z,20.23
2018-08-31T08:58:42.012Z,20.24
2018-08-31T09:01:15.363Z,20.22
2018-08-31T09:03:48.699Z,20.16
2018-08-31T09:06:22.252Z,20.09
2018-08-31T09:08:55.587Z,20.16
2018-08-31T09:11:29.885Z,20.30
2018-08-31T09:14:03.236Z,20.13
2018-08-31T09:16:36.737Z,20.05
2018-08-31T09:19:10.490Z,20.37
2018-08-31T09:21:43.805Z,20.58
2018-08-31T09:24:17.141Z,20.60
2018-08-31T09:26:50.453Z,20.46
2018-08-31T09:29:23.804Z,20.47
2018-08-31T09:31:57.120Z,20.76
2018-08-31T09:34:30.613Z,21.05
2018-08-31T09:37:03.933Z,21.24
2018-08-31T09:39:37.292Z,21.12
2018-08-31T09:42:10.745Z,20.95
2018-08-31T09:44:44.227Z,20.90
2018-08-31T09:47:17.557Z,20.85
2018-08-31T09:49:50.929Z,20.84
2018-08-31T09:52:24.253Z,20.85
2018-08-31T09:54:57.588Z,21.00
2018-08-31T09:57:30.965Z,20.89
2018-08-31T10:00:04.732Z,20.77
2018-08-31T10:02:39.878Z,20.63
2018-08-31T10:05:13.219Z,20.51
2018-08-31T10:07:46.581Z,20.40
2018-08-31T10:10:19.941Z,20.26
2018-08-31T10:12:53.341Z,20.40
2018-08-31T10:15:26.668Z,20.47
2018-08-31T10:18:00.114Z,20.53
2018-08-31T10:20:33.456Z,20.86
2018-08-31T10:23:06.974Z,20.96
2018-08-31T10:25:40.300Z,20.96
2018-08-31T10:28:13.678Z,21.16
2018-08-31T10:30:47.193Z,21.47
2018-08-31T10:33:20.542Z,21.66
2018-08-31T10:35:53.886Z,21.65
2018-08-31T10:38:27.247Z,21.56
2018-08-31T10:41:01.173Z,21.61
2018-08-31T10:43:34.497Z,21.72
2018-08-31T10:46:07.877Z,21.79
2018-08-31T10:48:41.186Z,21.86
2018-08-31T10:51:14.545Z,22.00
2018-08-31T10:53:47.885Z,22.08
2018-08-31T10:56:21.234Z,21.87
2018-08-31T10:58:54.636Z,21.65
2018-08-31T11:01:28.032Z,21.76
2018-08-31T11:04:01.395Z,21.62
2018-08-31T11:06:34.738Z,21.64
2018-08-31T11:09:08.213Z,21.66
2018-08-31T11:11:41.615Z,21.75
2018-08-31T11:14:15.037Z,21.90
2018-08-31T11:16:48.421Z,21.97
2018-08-31T11:19:21.749Z,21.95
2018-08-31T11:21:55.517Z,22.18
2018-08-31T11:24:28.857Z,22.24
2018-08-31T11:27:02.177Z,22.15
2018-08-31T11:29:35.760Z,22.30
2018-08-31T11:32:09.119Z,22.33
2018-08-31T11:34:42.453Z,22.09
2018-08-31T11:37:15.848Z,21.98
2018-08-31T11:39:49.186Z,21.93
2018-08-31T11:42:22.514Z,21.88
2018-08-31T11:44:55.888Z,22.00
2018-08-31T11:47:29.268Z,21.98
2018-08-31T11:50:02.925Z,22.13
2018-08-31T11:52:36.855Z,22.21
2018-08-31T11:55:10.995Z,22.29
2018-08-31T11:57:45.082Z,22.34
2018-08-31T12:00:20.474Z,22.43
2018-08-31T12:02:55.750Z,22.41
2018-08-31T12:05:30.320Z,22.26
2018-08-31T12:08:05.240Z,22.12
2018-08-31T12:10:39.802Z,22.10
2018-08-31T12:13:14.150Z,22.10
2018-08-31T12:15:48.596Z,22.14
2018-08-31T12:18:22.840Z,22.21
2018-08-31T12:20:57.002Z,22.17
2018-08-31T12:23:31.218Z,22.09
2018-08-31T12:26:05.912Z,22.06
2018-08-31T12:28:40.180Z,22.06
2018-08-31T12:31:14.596Z,21.85
2018-08-31T12:33:47.997Z,21.60
2018-08-31T12:36:22.270Z,21.56
2018-08-31T12:38:56.336Z,21.44
2018-08-31T12:41:29.825Z,21.30
2018-08-31T12:44:03.362Z,21.17
2018-08-31T12:46:36.730Z,21.21
2018-08-31T12:49:10.119Z,21.37
2018-08-31T12:51:43.466Z,21.39
2018-08-31T12:54:17.944Z,21.44
2018-08-31T12:56:51.906Z,21.48
2018-08-31T12:59:26.251Z,21.56
2018-08-31T13:02:01.553Z,21.46
2018-08-31T13:04:35.767Z,21.54
2018-08-31T13:07:09.663Z,21.57
2018-08-31T13:09:44.197Z,21.56
2018-08-31T13:12:18.255Z,21.55
2018-08-31T13:14:52.182Z,21.58
2018-08-31T13:17:25.658Z,21.60
2018-08-31T13:19:59.071Z,21.66
2018-08-31T13:22:32.369Z,21.74
2018-08-31T13:25:05.866Z,21.77
2018-08-31T13:27:39.340Z,21.68
2018-08-31T13:30:13.624Z,21.71
2018-08-31T13:32:48.187Z,21.79
2018-08-31T13:35:21.624Z,21.78
2018-08-31T13:37:55.081Z,21.72
2018-08-31T13:40:28.466Z,21.70
2018-08-31T13:43:02.209Z,21.71
2018-08-31T13:45:35.563Z,21.71
2018-08-31T13:48:08.963Z,21.67
2018-08-31T13:50:42.325Z,21.74
2018-08-31T13:53:15.739Z,21.77
2018-08-31T13:55:49.156Z,21.87
2018-08-31T13:58:22.558Z,21.66
2018-08-31T14:00:55.853Z,21.59
2018-08-31T14:03:29.158Z,21.49
2018-08-31T14:06:02.583Z,21.49
2018-08-31T14:08:35.917Z,21.47
2018-08-31T14:11:09.292Z,21.48
2018-08-31T14:13:42.660Z,21.46
2018-08-31T14:16:16.010Z,21.49
2018-08-31T14:18:49.437Z,21.52
2018-08-31T14:21:22.778Z,21.38
2018-08-31T14:23:56.092Z,21.26
2018-08-31T14:26:30.373Z,21.30
2018-08-31T14:29:03.746Z,21.24
2018-08-31T14:31:37.111Z,21.25
2018-08-31T14:34:10.569Z,21.26
2018-08-31T14:36:44.965Z,21.29
2018-08-31T14:39:18.334Z,21.32
2018-08-31T14:41:51.677Z,21.24
2018-08-31T14:44:25.060Z,21.23
2018-08-31T14:46:58.552Z,21.17
2018-08-31T14:49:32.145Z,21.09
2018-08-31T14:52:06.193Z,21.05
2018-08-31T14:54:39.586Z,21.06
2018-08-31T14:57:13.025Z,21.06
2018-08-31T14:59:46.412Z,21.11
2018-08-31T15:02:19.895Z,21.06
2018-08-31T15:04:53.538Z,20.97
2018-08-31T15:07:27.206Z,21.05
2018-08-31T15:10:00.786Z,21.12
2018-08-31T15:12:34.410Z,21.10
2018-08-31T15:15:07.873Z,21.11
2018-08-31T15:17:41.689Z,21.11
2018-08-31T15:20:15.008Z,21.17
2018-08-31T15:22:48.551Z,21.24
2018-08-31T15:25:21.900Z,21.19
2018-08-31T15:27:55.705Z,21.23
2018-08-31T15:30:29.025Z,21.16
2018-08-31T15:33:02.364Z,21.15
2018-08-31T15:35:35.790Z,21.17
2018-08-31T15:38:09.178Z,21.16
2018-08-31T15:40:42.570Z,21.23
2018-08-31T15:43:16.675Z,21.15
2018-08-31T15:45:50.252Z,21.20
2018-08-31T15:48:23.593Z,21.15
2018-08-31T15:50:57.093Z,21.20
2018-08-31T15:53:30.433Z,21.29
2018-08-31T15:56:04.065Z,21.32
2018-08-31T15:58:37.331Z,21.23
2018-08-31T16:01:10.677Z,21.16
2018-08-31T16:03:44.102Z,21.22
2018-08-31T16:06:17.485Z,21.17
2018-08-31T16:08:50.812Z,21.16
2018-08-31T16:11:27.993Z,21.11
2018-08-31T16:14:02.196Z,21.21
2018-08-31T16:16:35.571Z,21.18
2018-08-31T16:19:08.918Z,21.18
2018-08-31T16:21:42.277Z,21.00
2018-08-31T16:24:15.652Z,21.00
2018-08-31T16:26:49.053Z,20.95
2018-08-31T16:29:22.384Z,20.87
2018-08-31T16:31:55.730Z,20.88
2018-08-31T16:34:29.080Z,20.88
2018-08-31T16:37:02.420Z,20.81
2018-08-31T16:39:35.754Z,20.71
2018-08-31T16:42:09.128Z,20.65
2018-08-31T16:44:42.453Z,20.60
2018-08-31T16:47:15.782Z,20.57
2018-08-31T16:49:49.117Z,20.59
2018-08-31T16:52:22.445Z,20.49
2018-08-31T16:54:55.793Z,20.43
2018-08-31T16:57:29.156Z,20.36
2018-08-31T17:00:02.553Z,20.29
2018-08-31T17:02:35.870Z,20.17
2018-08-31T17:05:09.236Z,20.14
2018-08-31T17:07:42.574Z,20.11
2018-08-31T17:10:16.009Z,20.09
2018-08-31T17:12:49.319Z,20.06
2018-08-31T17:15:22.653Z,20.01
2018-08-31T17:17:56.002Z,19.94
2018-08-31T17:20:29.437Z,19.90
2018-08-31T17:23:02.772Z,19.73
2018-08-31T17:25:36.121Z,19.68
2018-08-31T17:28:14.742Z,19.62
2018-08-31T17:30:48.138Z,19.58
2018-08-31T17:33:26.744Z,19.51
2018-08-31T17:36:05.518Z,19.45
2018-08-31T17:38:38.898Z,19.40
2018-08-31T17:41:12.289Z,19.37
2018-08-31T17:43:45.622Z,19.31
2018-08-31T17:46:18.988Z,19.28
2018-08-31T17:48:56.127Z,19.21
2018-08-31T17:51:29.966Z,19.10
2018-08-31T17:54:03.301Z,18.94
2018-08-31T17:56:36.659Z,18.88
2018-08-31T17:59:10.069Z,18.81
2018-08-31T18:01:43.385Z,18.81
2018-08-31T18:04:16.922Z,18.81
2018-08-31T18:06:50.338Z,18.78
2018-08-31T18:09:23.865Z,18.78
2018-08-31T18:11:57.193Z,18.76
2018-08-31T18:14:30.605Z,18.72
2018-08-31T18:17:03.980Z,18.68
2018-08-31T18:19:37.487Z,18.62
2018-08-31T18:22:10.805Z,18.55
2018-08-31T18:24:44.171Z,18.49
2018-08-31T18:27:17.532Z,18.45
2018-08-31T18:29:50.868Z,18.42
2018-08-31T18:32:24.172Z,18.36
2018-08-31T18:34:57.503Z,18.32
2018-08-31T18:37:30.878Z,18.26
2018-08-31T18:40:05.366Z,18.19
2018-08-31T18:42:39.994Z,18.13
2018-08-31T18:45:13.377Z,18.06
2018-08-31T18:47:46.804Z,17.98
2018-08-31T18:50:20.178Z,17.92
2018-08-31T18:52:53.621Z,17.84
2018-08-31T18:55:27.403Z,17.78
2018-08-31T18:58:00.929Z,17.70
2018-08-31T19:00:34.234Z,17.62
2018-08-31T19:03:07.764Z,17.57
2018-08-31T19:05:41.178Z,17.52
2018-08-31T19:08:14.549Z,17.46
2018-08-31T19:10:47.901Z,17.38
2018-08-31T19:13:21.265Z,17.26
2018-08-31T19:15:54.597Z,17.15
2018-08-31T19:18:28.278Z,17.08
2018-08-31T19:21:01.789Z,17.01
2018-08-31T19:23:35.278Z,16.94
2018-08-31T19:26:08.621Z,16.86
2018-08-31T19:28:42.210Z,16.78
2018-08-31T19:31:17.280Z,16.66
2018-08-31T19:33:51.842Z,16.59
2018-08-31T19:36:25.291Z,16.51
2018-08-31T19:38:58.636Z,16.42
2018-08-31T19:41:33.101Z,16.34
2018-08-31T19:44:06.651Z,16.25
2018-08-31T19:46:40.143Z,16.20
2018-08-31T19:49:13.645Z,16.12
2018-08-31T19:51:47.168Z,16.06
2018-08-31T19:54:20.916Z,15.97
2018-08-31T19:56:54.728Z,15.93
2018-08-31T19:59:28.689Z,15.90
2018-08-31T20:02:02.287Z,15.84
2018-08-31T20:04:35.842Z,15.75
2018-08-31T20:07:09.399Z,15.68
2018-08-31T20:09:42.870Z,15.59
2018-08-31T20:12:16.234Z,15.56
2018-08-31T20:14:49.564Z,15.53
2018-08-31T20:17:23.370Z,15.48
2018-08-31T20:19:56.677Z,15.45
2018-08-31T20:22:30.033Z,15.41
2018-08-31T20:25:03.345Z,15.39
2018-08-31T20:27:36.728Z,15.36
2018-08-31T20:30:10.082Z,15.37
2018-08-31T20:32:43.410Z,15.37
2018-08-31T20:35:16.736Z,15.34
2018-08-31T20:37:50.468Z,15.30
2018-08-31T20:40:23.814Z,15.28
2018-08-31T20:42:57.141Z,15.25
2018-08-31T20:45:30.518Z,15.25
2018-08-31T20:48:03.886Z,15.22
2018-08-31T20:50:37.237Z,15.20
2018-08-31T20:53:10.588Z,15.17
2018-08-31T20:55:43.960Z,15.15
2018-08-31T20:58:17.314Z,15.12
2018-08-31T21:00:50.641Z,15.08
2018-08-31T21:03:24.235Z,15.04
2018-08-31T21:05:57.605Z,15.01
2018-08-31T21:08:31.562Z,14.99
2018-08-31T21:11:04.935Z,14.97
2018-08-31T21:13:38.531Z,14.94
2018-08-31T21:16:12.059Z,14.91
2018-08-31T21:18:45.390Z,14.90
2018-08-31T21:21:18.736Z,14.87
2018-08-31T21:23:52.045Z,14.85
2018-08-31T21:26:25.456Z,14.83
2018-08-31T21:28:58.776Z,14.79
2018-08-31T21:31:33.236Z,14.76
2018-08-31T21:34:07.120Z,14.72
2018-08-31T21:36:40.450Z,14.70
2018-08-31T21:39:13.816Z,14.70
2018-08-31T21:41:47.144Z,14.69
2018-08-31T21:44:20.470Z,14.66
2018-08-31T21:46:53.797Z,14.65
2018-08-31T21:49:27.273Z,14.63
2018-08-31T21:52:00.950Z,14.59
2018-08-31T21:54:34.276Z,14.59
2018-08-31T21:57:08.348Z,14.59
2018-08-31T21:59:41.789Z,14.57
2018-08-31T22:02:15.351Z,14.55
2018-08-31T22:04:48.673Z,14.55
2018-08-31T22:07:22.017Z,14.50
2018-08-31T22:09:55.345Z,14.48
2018-08-31T22:12:28.796Z,14.42
2018-08-31T22:15:02.257Z,14.39
2018-08-31T22:17:35.602Z,14.40
2018-08-31T22:20:08.981Z,14.38
2018-08-31T22:22:42.343Z,14.39
2018-08-31T22:25:15.650Z,14.37
2018-08-31T22:27:49.164Z,14.36
2018-08-31T22:30:22.492Z,14.32
2018-08-31T22:32:55.858Z,14.27
2018-08-31T22:35:29.178Z,14.24
2018-08-31T22:38:02.766Z,14.19
2018-08-31T22:40:36.167Z,14.18
2018-08-31T22:43:09.707Z,14.19
2018-08-31T22:45:43.203Z,14.16
2018-08-31T22:48:16.566Z,14.16
2018-08-31T22:50:50.047Z,14.16
2018-08-31T22:53:23.721Z,14.14
2018-08-31T22:55:57.237Z,14.14
2018-08-31T22:58:30.740Z,14.14
2018-08-31T23:01:04.287Z,14.14
2018-08-31T23:03:38.127Z,14.13
2018-08-31T23:06:11.657Z,14.14
2018-08-31T23:08:45.175Z,14.09
2018-08-31T23:11:18.657Z,14.08
2018-08-31T23:13:52.269Z,14.04
2018-08-31T23:16:25.761Z,14.01
2018-08-31T23:18:59.787Z,13.97
2018-08-31T23:21:33.274Z,13.93
2018-08-31T23:24:07.636Z,13.90
2018-08-31T23:26:41.404Z,13.83
2018-08-31T23:29:14.760Z,13.78
2018-08-31T23:31:48.071Z,13.77
2018-08-31T23:34:22.218Z,13.76
2018-08-31T23:36:55.548Z,13.72
2018-08-31T23:39:28.972Z,13.66
2018-08-31T23:42:02.312Z,13.66
2018-08-31T23:44:35.644Z,13.62
2018-08-31T23:47:09.089Z,13.58
2018-08-31T23:49:42.576Z,13.51
2018-08-31T23:52:15.988Z,13.46
2018-08-31T23:54:49.336Z,13.42
2018-08-31T23:57:23.703Z,13.39
2018-08-31T23:59:57.370Z,13.36
